createdAt,value
2024-05-09T00:00:48.332Z,100914.66
2024-05-09T00:03:16.591Z,100912.97
2024-05-09T00:05:45.253Z,100917.22
2024-05-09T00:08:13.772Z,100928.28
2024-05-09T00:10:42.167Z,100921.47
2024-05-09T00:13:11.608Z,100925.72
2024-05-09T00:15:41.371Z,100922.31
2024-05-09T00:18:10.003Z,100918.91
2024-05-09T00:20:40.772Z,100916.31
2024-05-09T00:23:16.619Z,100921.44
2024-05-09T00:25:46.103Z,100927.44
2024-05-09T00:28:15.078Z,100929.13
2024-05-09T00:30:43.475Z,100929.94
2024-05-09T00:33:12.054Z,100935.06
2024-05-09T00:35:42.116Z,100953.84
2024-05-09T00:38:12.579Z,100964.91
2024-05-09T00:40:42.946Z,100971.72
2024-05-09T00:43:14.665Z,100976.03
2024-05-09T00:45:44.418Z,100970.03
2024-05-09T00:48:18.548Z,100975.16
2024-05-09T00:50:49.353Z,100960.66
2024-05-09T00:53:19.522Z,100960.69
2024-05-09T00:55:48.550Z,100964.06
2024-05-09T00:58:20.980Z,100965.78
2024-05-09T01:00:51.709Z,100964.94
2024-05-09T01:03:20.551Z,100947.03
2024-05-09T01:05:48.939Z,100941.91
2024-05-09T01:08:17.226Z,100925.72
2024-05-09T01:10:47.925Z,100905.25
2024-05-09T01:13:16.817Z,100888.19
2024-05-09T01:15:45.635Z,100894.16
2024-05-09T01:18:15.010Z,100890.75
2024-05-09T01:20:45.144Z,100890.75
2024-05-09T01:23:15.935Z,100880.50
2024-05-09T01:25:46.679Z,100877.94
2024-05-09T01:28:16.732Z,100877.94
2024-05-09T01:30:44.843Z,100875.38
2024-05-09T01:33:13.711Z,100876.22
2024-05-09T01:35:43.203Z,100864.28
2024-05-09T01:38:17.736Z,100862.59
2024-05-09T01:40:46.944Z,100853.19
2024-05-09T01:43:15.182Z,100864.28
2024-05-09T01:45:43.333Z,100857.47
2024-05-09T01:48:14.484Z,100862.56
2024-05-09T01:50:43.639Z,100862.56
2024-05-09T01:53:14.391Z,100867.69
2024-05-09T01:55:43.706Z,100875.34
2024-05-09T01:58:11.958Z,100870.22
2024-05-09T02:00:42.683Z,100868.53
2024-05-09T02:03:16.448Z,100865.13
2024-05-09T02:05:47.715Z,100868.53
2024-05-09T02:08:21.764Z,100868.53
2024-05-09T02:10:51.070Z,100865.13
2024-05-09T02:13:19.433Z,100865.09
2024-05-09T02:15:47.594Z,100865.13
2024-05-09T02:18:16.002Z,100858.31
2024-05-09T02:20:44.458Z,100853.19
2024-05-09T02:23:13.068Z,100851.50
2024-05-09T02:25:42.423Z,100850.63
2024-05-09T02:28:13.864Z,100852.34
2024-05-09T02:30:42.684Z,100842.09
2024-05-09T02:33:13.442Z,100851.47
2024-05-09T02:35:43.992Z,100854.06
2024-05-09T02:38:13.089Z,100855.75
2024-05-09T02:40:41.681Z,100852.34
2024-05-09T02:43:13.190Z,100849.78
2024-05-09T02:45:42.030Z,100854.88
2024-05-09T02:48:13.372Z,100843.84
2024-05-09T02:50:42.607Z,100842.94
2024-05-09T02:53:14.790Z,100842.97
2024-05-09T02:55:43.568Z,100829.31
2024-05-09T02:58:12.260Z,100836.13
2024-05-09T03:00:42.553Z,100842.09
2024-05-09T03:03:14.316Z,100844.66
2024-05-09T03:05:45.412Z,100844.66
2024-05-09T03:08:14.143Z,100838.66
2024-05-09T03:10:42.717Z,100841.25
2024-05-09T03:13:13.565Z,100846.34
2024-05-09T03:15:43.341Z,100839.53
2024-05-09T03:18:12.332Z,100839.53
2024-05-09T03:20:40.974Z,100832.72
2024-05-09T03:23:10.263Z,100842.97
2024-05-09T03:25:39.297Z,100836.16
2024-05-09T03:28:07.737Z,100818.25
2024-05-09T03:30:41.321Z,100830.19
2024-05-09T03:33:13.634Z,100825.06
2024-05-09T03:35:44.016Z,100818.25
2024-05-09T03:38:12.575Z,100809.75
2024-05-09T03:40:51.213Z,100802.06
2024-05-09T03:43:20.404Z,100797.81
2024-05-09T03:45:50.898Z,100788.44
2024-05-09T03:48:19.246Z,100791.84
2024-05-09T03:50:47.804Z,100786.72
2024-05-09T03:53:16.829Z,100781.59
2024-05-09T03:55:44.902Z,100783.31
2024-05-09T03:58:15.018Z,100772.25
2024-05-09T04:00:43.311Z,100764.56
2024-05-09T04:03:12.868Z,100762.88
2024-05-09T04:05:43.399Z,100756.03
2024-05-09T04:08:12.154Z,100751.78
2024-05-09T04:10:40.265Z,100765.41
2024-05-09T04:13:08.297Z,100754.31
2024-05-09T04:15:36.424Z,100753.47
2024-05-09T04:18:04.897Z,100750.91
2024-05-09T04:20:38.392Z,100753.47
2024-05-09T04:23:12.741Z,100752.63
2024-05-09T04:25:45.909Z,100754.31
2024-05-09T04:28:14.867Z,100738.13
2024-05-09T04:30:43.807Z,100737.28
2024-05-09T04:33:13.949Z,100748.38
2024-05-09T04:35:46.243Z,100741.53
2024-05-09T04:38:15.221Z,100741.53
2024-05-09T04:40:43.792Z,100741.56
2024-05-09T04:43:17.103Z,100741.56
2024-05-09T04:45:45.463Z,100738.97
2024-05-09T04:48:14.035Z,100735.59
2024-05-09T04:50:42.731Z,100730.47
2024-05-09T04:53:15.744Z,100716.00
2024-05-09T04:55:44.061Z,100713.44
2024-05-09T04:58:12.571Z,100707.47
2024-05-09T05:00:41.388Z,100708.31
2024-05-09T05:03:14.620Z,100704.06
2024-05-09T05:05:45.904Z,100699.81
2024-05-09T05:08:19.526Z,100699.78
2024-05-09T05:10:49.371Z,100706.59
2024-05-09T05:13:21.271Z,100712.56
2024-05-09T05:15:51.535Z,100715.97
2024-05-09T05:18:20.259Z,100718.53
2024-05-09T05:20:49.230Z,100712.56
2024-05-09T05:23:19.878Z,100710.88
2024-05-09T05:25:50.064Z,100707.47
2024-05-09T05:28:18.398Z,100698.09
2024-05-09T05:30:47.272Z,100695.53
2024-05-09T05:33:16.647Z,100706.63
2024-05-09T05:35:44.946Z,100701.53
2024-05-09T05:38:13.134Z,100695.56
2024-05-09T05:40:41.466Z,100702.34
2024-05-09T05:43:16.475Z,100692.97
2024-05-09T05:45:44.989Z,100701.50
2024-05-09T05:48:14.398Z,100694.69
2024-05-09T05:50:43.275Z,100697.25
2024-05-09T05:53:11.595Z,100701.50
2024-05-09T05:55:43.027Z,100698.94
2024-05-09T05:58:12.177Z,100703.19
2024-05-09T06:00:42.375Z,100703.19
2024-05-09T06:03:12.824Z,100688.72
2024-05-09T06:05:44.399Z,100701.47
2024-05-09T06:08:13.005Z,100695.50
2024-05-09T06:10:41.930Z,100695.53
2024-05-09T06:13:14.080Z,100698.06
2024-05-09T06:15:43.323Z,100693.81
2024-05-09T06:18:12.862Z,100695.50
2024-05-09T06:20:43.647Z,100686.16
2024-05-09T06:23:13.349Z,100687.84
2024-05-09T06:25:42.932Z,100686.16
2024-05-09T06:28:11.292Z,100672.50
2024-05-09T06:30:42.600Z,100685.31
2024-05-09T06:33:14.943Z,100687.84
2024-05-09T06:35:45.391Z,100675.94
2024-05-09T06:38:13.782Z,100669.09
2024-05-09T06:40:44.078Z,100675.91
2024-05-09T06:43:18.121Z,100669.09
2024-05-09T06:45:53.226Z,100673.38
2024-05-09T06:48:22.931Z,100669.97
2024-05-09T06:50:51.361Z,100676.78
2024-05-09T06:53:23.457Z,100659.72
2024-05-09T06:55:51.693Z,100664.84
2024-05-09T06:58:19.877Z,100664.84
2024-05-09T07:00:48.136Z,100665.69
2024-05-09T07:03:19.853Z,100655.47
2024-05-09T07:05:49.472Z,100656.31
2024-05-09T07:08:19.031Z,100650.38
2024-05-09T07:10:47.810Z,100663.13
2024-05-09T07:13:16.211Z,100663.97
2024-05-09T07:15:44.722Z,100664.81
2024-05-09T07:18:17.371Z,100655.44
2024-05-09T07:20:48.193Z,100663.94
2024-05-09T07:23:17.339Z,100662.22
2024-05-09T07:25:45.648Z,100666.50
2024-05-09T07:28:22.718Z,100667.31
2024-05-09T07:30:50.748Z,100664.78
2024-05-09T07:33:23.986Z,100667.31
2024-05-09T07:35:53.445Z,100669.88
2024-05-09T07:38:21.762Z,100673.25
2024-05-09T07:40:50.506Z,100663.91
2024-05-09T07:43:18.557Z,100670.72
2024-05-09T07:45:52.584Z,100675.81
2024-05-09T07:52:38.552Z,100674.13
2024-05-09T07:53:51.023Z,100662.22
2024-05-09T07:56:23.476Z,100669.00
2024-05-09T07:58:54.489Z,100660.47
2024-05-09T08:01:23.145Z,100661.34
2024-05-09T08:03:51.325Z,100657.94
2024-05-09T08:06:19.555Z,100663.03
2024-05-09T08:08:49.909Z,100655.38
2024-05-09T08:11:18.120Z,100656.22
2024-05-09T08:13:46.356Z,100661.31
2024-05-09T08:16:17.502Z,100654.53
2024-05-09T08:18:45.512Z,100657.03
2024-05-09T08:21:13.585Z,100658.75
2024-05-09T08:23:41.599Z,100665.53
2024-05-09T08:26:09.591Z,100663.88
2024-05-09T08:28:37.679Z,100659.59
2024-05-09T08:31:07.199Z,100652.78
2024-05-09T08:33:36.205Z,100642.56
2024-05-09T08:36:04.712Z,100641.75
2024-05-09T08:38:32.726Z,100629.81
2024-05-09T08:41:04.000Z,100634.06
2024-05-09T08:43:32.115Z,100632.34
2024-05-09T08:46:00.995Z,100634.91
2024-05-09T08:48:30.687Z,100635.78
2024-05-09T08:51:00.057Z,100628.97
2024-05-09T08:53:28.215Z,100624.72
2024-05-09T08:56:01.754Z,100624.69
2024-05-09T08:58:32.353Z,100621.31
2024-05-09T09:01:01.214Z,100617.06
2024-05-09T09:03:31.326Z,100617.91
2024-05-09T09:06:12.518Z,100620.47
2024-05-09T09:08:41.125Z,100623.03
2024-05-09T09:11:09.197Z,100632.34
2024-05-09T09:13:37.208Z,100620.44
2024-05-09T09:16:05.807Z,100617.91
2024-05-09T09:18:34.989Z,100623.84
2024-05-09T09:21:03.773Z,100634.06
2024-05-09T09:23:31.961Z,100637.47
2024-05-09T09:26:00.941Z,100640.03
2024-05-09T09:28:29.083Z,100645.13
2024-05-09T09:31:06.063Z,100648.50
2024-05-09T09:33:36.464Z,100658.75
2024-05-09T09:36:07.514Z,100656.16
2024-05-09T09:38:38.442Z,100662.13
2024-05-09T09:41:08.866Z,100669.81
2024-05-09T09:43:37.631Z,100670.66
2024-05-09T09:46:09.575Z,100672.34
2024-05-09T09:48:42.267Z,100668.94
2024-05-09T09:51:10.912Z,100663.84
2024-05-09T09:53:39.542Z,100649.34
2024-05-09T09:56:10.964Z,100665.53
2024-05-09T09:58:41.296Z,100668.09
2024-05-09T10:01:09.477Z,100663.84
2024-05-09T10:03:37.999Z,100659.59
2024-05-09T10:06:07.625Z,100657.03
2024-05-09T10:08:37.103Z,100651.09
2024-05-09T10:11:05.609Z,100653.63
2024-05-09T10:13:35.536Z,100656.22
2024-05-09T10:16:10.310Z,100655.34
2024-05-09T10:18:39.857Z,100651.09
2024-05-09T10:21:20.923Z,100652.81
2024-05-09T10:24:03.764Z,100660.47
2024-05-09T10:26:34.645Z,100666.47
2024-05-09T10:29:18.352Z,100652.81
2024-05-09T10:31:48.288Z,100647.75
2024-05-09T10:34:19.513Z,100647.75
2024-05-09T10:36:48.018Z,100647.75
2024-05-09T10:39:16.753Z,100643.47
2024-05-09T10:41:44.688Z,100639.25
2024-05-09T10:44:15.088Z,100638.38
2024-05-09T10:46:43.861Z,100624.78
2024-05-09T10:49:14.643Z,100617.13
2024-05-09T10:51:43.290Z,100611.19
2024-05-09T10:54:11.611Z,100618.00
2024-05-09T10:56:39.607Z,100623.09
2024-05-09T10:59:07.839Z,100626.53
2024-05-09T11:01:36.551Z,100629.91
2024-05-09T11:04:04.775Z,100625.69
2024-05-09T11:06:35.681Z,100611.22
2024-05-09T11:09:03.984Z,100610.38
2024-05-09T11:11:32.127Z,100598.47
2024-05-09T11:14:00.164Z,100578.06
2024-05-09T11:16:28.155Z,100569.53
2024-05-09T11:18:58.206Z,100563.59
2024-05-09T11:21:27.464Z,100578.91
2024-05-09T11:23:55.954Z,100595.94
2024-05-09T11:26:25.741Z,100595.09
2024-05-09T11:28:53.818Z,100612.13
2024-05-09T11:31:22.505Z,100633.41
2024-05-09T11:33:50.825Z,100635.09
2024-05-09T11:36:18.993Z,100649.59
2024-05-09T11:38:47.037Z,100653.84
2024-05-09T11:41:19.273Z,100676.00
2024-05-09T11:43:47.334Z,100681.94
2024-05-09T11:46:15.653Z,100676.81
2024-05-09T11:48:43.942Z,100676.81
2024-05-09T11:51:12.127Z,100670.88
2024-05-09T11:53:40.076Z,100651.28
2024-05-09T11:56:08.421Z,100666.59
2024-05-09T11:58:38.929Z,100664.06
2024-05-09T12:01:06.991Z,100670.84
2024-05-09T12:03:38.431Z,100668.28
2024-05-09T12:06:06.809Z,100682.75
2024-05-09T12:08:34.917Z,100671.72
2024-05-09T12:11:03.100Z,100685.31
2024-05-09T12:13:31.304Z,100676.81
2024-05-09T12:15:59.641Z,100670.00
2024-05-09T12:18:27.916Z,100664.03
2024-05-09T12:20:56.052Z,100656.41
2024-05-09T12:23:24.034Z,100647.03
2024-05-09T12:25:52.150Z,100643.59
2024-05-09T12:28:21.056Z,100641.06
2024-05-09T12:30:50.531Z,100654.69
2024-05-09T12:33:21.314Z,100646.19
2024-05-09T12:35:50.994Z,100645.31
2024-05-09T12:38:19.390Z,100645.31
2024-05-09T12:40:47.576Z,100648.75
2024-05-09T12:43:15.683Z,100661.50
2024-05-09T12:45:44.006Z,100650.44
2024-05-09T12:48:13.139Z,100648.72
2024-05-09T12:50:42.319Z,100653.84
2024-05-09T12:53:10.450Z,100649.56
2024-05-09T12:55:45.179Z,100646.19
2024-05-09T12:58:25.647Z,100658.09
2024-05-09T13:00:59.015Z,100649.56
2024-05-09T13:03:27.069Z,100659.78
2024-05-09T13:05:55.933Z,100664.06
2024-05-09T13:08:24.759Z,100666.59
2024-05-09T13:10:53.062Z,100670.88
2024-05-09T13:13:21.438Z,100680.22
2024-05-09T13:15:49.683Z,100688.72
2024-05-09T13:18:17.760Z,100689.63
2024-05-09T13:20:45.927Z,100687.06
2024-05-09T13:23:13.915Z,100691.31
2024-05-09T13:25:42.052Z,100701.53
2024-05-09T13:28:12.963Z,100701.53
2024-05-09T13:30:42.257Z,100699.84
2024-05-09T13:33:12.776Z,100696.44
2024-05-09T13:35:48.808Z,100697.28
2024-05-09T13:38:23.027Z,100698.13
2024-05-09T13:40:51.465Z,100701.53
2024-05-09T13:43:21.516Z,100704.06
2024-05-09T13:45:50.127Z,100706.66
2024-05-09T13:48:18.674Z,100698.09
2024-05-09T13:50:46.724Z,100699.81
2024-05-09T13:53:14.743Z,100695.56
2024-05-09T13:55:42.887Z,100699.78
2024-05-09T13:58:11.050Z,100718.56
2024-05-09T14:00:46.349Z,100711.75
2024-05-09T14:03:19.640Z,100707.47
2024-05-09T14:05:50.942Z,100720.25
2024-05-09T14:08:22.783Z,100715.16
2024-05-09T14:10:51.669Z,100710.00
2024-05-09T14:13:20.778Z,100713.41
2024-05-09T14:15:49.710Z,100707.44
2024-05-09T14:18:18.159Z,100698.91
2024-05-09T14:20:46.243Z,100704.03
2024-05-09T14:23:14.895Z,100696.31
2024-05-09T14:25:44.055Z,100704.81
2024-05-09T14:28:13.691Z,100690.31
2024-05-09T14:30:42.919Z,100677.47
2024-05-09T14:33:12.167Z,100676.63
2024-05-09T14:35:40.378Z,100677.41
2024-05-09T14:38:10.532Z,100664.56
2024-05-09T14:40:42.876Z,100661.09
2024-05-09T14:43:16.263Z,100670.41
2024-05-09T14:45:45.590Z,100667.81
2024-05-09T14:48:17.046Z,100658.41
2024-05-09T14:50:45.233Z,100656.81
2024-05-09T14:53:14.169Z,100652.50
2024-05-09T14:55:43.713Z,100649.06
2024-05-09T14:58:13.563Z,100647.41
2024-05-09T15:00:47.911Z,100659.28
2024-05-09T15:03:20.602Z,100657.50
2024-05-09T15:05:49.823Z,100657.50
2024-05-09T15:08:19.187Z,100652.50
2024-05-09T15:10:47.687Z,100655.00
2024-05-09T15:13:16.984Z,100651.59
2024-05-09T15:15:45.669Z,100658.41
2024-05-09T15:18:15.161Z,100670.38
2024-05-09T15:20:45.790Z,100672.88
2024-05-09T15:23:14.031Z,100669.44
2024-05-09T15:25:42.174Z,100663.53
2024-05-09T15:28:10.288Z,100662.63
2024-05-09T15:30:39.077Z,100656.66
2024-05-09T15:33:08.225Z,100655.81
2024-05-09T15:35:36.691Z,100664.34
2024-05-09T15:38:05.077Z,100661.78
2024-05-09T15:40:39.196Z,100659.38
2024-05-09T15:43:11.108Z,100668.78
2024-05-09T15:45:41.355Z,100674.78
2024-05-09T15:48:11.512Z,100671.38
2024-05-09T15:50:42.004Z,100679.13
2024-05-09T15:53:13.068Z,100683.38
2024-05-09T15:55:42.479Z,100679.06
2024-05-09T15:58:11.306Z,100688.47
2024-05-09T16:00:42.436Z,100687.56
2024-05-09T16:03:13.977Z,100694.38
2024-05-09T16:05:46.826Z,100693.50
2024-05-09T16:08:16.451Z,100685.00
2024-05-09T16:10:46.776Z,100687.53
2024-05-09T16:13:17.179Z,100681.56
2024-05-09T16:15:46.263Z,100683.28
2024-05-09T16:18:14.664Z,100683.38
2024-05-09T16:20:44.856Z,100683.38
2024-05-09T16:23:14.550Z,100673.16
2024-05-09T16:25:45.874Z,100685.03
2024-05-09T16:28:14.243Z,100691.03
2024-05-09T16:30:42.436Z,100692.75
2024-05-09T16:33:12.418Z,100694.44
2024-05-09T16:35:40.679Z,100691.88
2024-05-09T16:38:08.994Z,100688.44
2024-05-09T16:40:40.532Z,100673.13
2024-05-09T16:43:13.930Z,100692.69
2024-05-09T16:45:46.343Z,100687.56
2024-05-09T16:48:14.975Z,100685.00
2024-05-09T16:50:43.202Z,100692.63
2024-05-09T16:53:11.294Z,100696.00
2024-05-09T16:55:39.491Z,100687.44
2024-05-09T16:58:08.850Z,100689.13
2024-05-09T17:00:41.927Z,100689.13
2024-05-09T17:03:15.217Z,100703.63
2024-05-09T17:05:47.021Z,100696.81
2024-05-09T17:08:20.366Z,100699.44
2024-05-09T17:10:49.920Z,100701.09
2024-05-09T17:13:19.533Z,100714.72
2024-05-09T17:15:49.191Z,100703.69
2024-05-09T17:18:17.631Z,100714.78
2024-05-09T17:20:45.650Z,100717.41
2024-05-09T17:23:14.497Z,100722.53
2024-05-09T17:25:43.144Z,100725.16
2024-05-09T17:28:12.000Z,100732.00
2024-05-09T17:30:42.574Z,100718.41
2024-05-09T17:33:12.738Z,100704.75
2024-05-09T17:35:41.880Z,100724.41
2024-05-09T17:38:10.266Z,100723.59
2024-05-09T17:40:39.491Z,100720.16
2024-05-09T17:43:10.229Z,100726.94
2024-05-09T17:45:41.256Z,100717.59
2024-05-09T17:48:12.031Z,100727.00
2024-05-09T17:50:41.928Z,100722.75
2024-05-09T17:53:11.527Z,100732.97
2024-05-09T17:55:40.810Z,100731.25
2024-05-09T17:58:09.470Z,100702.34
2024-05-09T18:00:40.766Z,100720.22
2024-05-09T18:03:14.491Z,100723.59
2024-05-09T18:05:44.274Z,100725.28
2024-05-09T18:08:13.768Z,100728.69
2024-05-09T18:10:43.117Z,100723.56
2024-05-09T18:13:12.747Z,100727.00
2024-05-09T18:15:41.666Z,100714.22
2024-05-09T18:18:11.132Z,100719.34
2024-05-09T18:20:44.043Z,100700.59
2024-05-09T18:23:16.462Z,100698.00
2024-05-09T18:25:46.719Z,100703.09
2024-05-09T18:28:15.697Z,100705.63
2024-05-09T18:30:44.257Z,100703.91
2024-05-09T18:33:12.811Z,100685.19
2024-05-09T18:35:44.636Z,100700.47
2024-05-09T18:38:12.780Z,100699.53
2024-05-09T18:40:43.574Z,100696.91
2024-05-09T18:43:13.360Z,100695.19
2024-05-09T18:45:41.564Z,100692.63
2024-05-09T18:48:10.538Z,100699.41
2024-05-09T18:50:41.075Z,100707.94
2024-05-09T18:53:12.267Z,100697.69
2024-05-09T18:55:44.475Z,100702.03
2024-05-09T18:58:13.287Z,100703.78
2024-05-09T19:00:44.132Z,100697.84
2024-05-09T19:03:15.666Z,100700.44
2024-05-09T19:05:45.917Z,100709.00
2024-05-09T19:08:15.824Z,100702.19
2024-05-09T19:10:46.367Z,100701.28
2024-05-09T19:13:15.286Z,100693.59
2024-05-09T19:15:44.329Z,100704.69
2024-05-09T19:18:15.851Z,100687.69
2024-05-09T19:20:44.979Z,100698.75
2024-05-09T19:23:13.176Z,100701.31
2024-05-09T19:25:41.488Z,100703.03
2024-05-09T19:28:09.838Z,100719.25
2024-05-09T19:30:41.454Z,100713.28
2024-05-09T19:33:13.684Z,100709.03
2024-05-09T19:35:43.527Z,100707.34
2024-05-09T19:38:12.844Z,100701.44
2024-05-09T19:40:41.680Z,100707.41
2024-05-09T19:43:10.065Z,100692.91
2024-05-09T19:45:38.514Z,100704.88
2024-05-09T19:48:07.384Z,100693.81
2024-05-09T19:50:41.681Z,100697.22
2024-05-09T19:53:15.651Z,100704.03
2024-05-09T19:55:43.990Z,100712.59
2024-05-09T19:58:13.041Z,100707.50
2024-05-09T20:00:43.410Z,100713.47
2024-05-09T20:03:13.938Z,100720.25
2024-05-09T20:05:47.134Z,100722.00
2024-05-09T20:08:15.979Z,100720.31
2024-05-09T20:10:44.520Z,100713.47
2024-05-09T20:13:12.922Z,100726.25
2024-05-09T20:15:41.186Z,100730.53
2024-05-09T20:18:09.529Z,100735.63
2024-05-09T20:20:41.588Z,100726.22
2024-05-09T20:23:14.863Z,100729.63
2024-05-09T20:25:43.457Z,100728.78
2024-05-09T20:28:11.740Z,100717.69
2024-05-09T20:30:39.937Z,100723.66
2024-05-09T20:33:09.437Z,100726.22
2024-05-09T20:35:38.087Z,100721.94
2024-05-09T20:38:06.418Z,100723.66
2024-05-09T20:40:37.856Z,100728.72
2024-05-09T20:43:08.803Z,100736.38
2024-05-09T20:45:37.293Z,100733.00
2024-05-09T20:48:05.977Z,100747.47
2024-05-09T20:50:39.303Z,100742.34
2024-05-09T20:53:12.732Z,100730.41
2024-05-09T20:55:42.283Z,100730.41
2024-05-09T20:58:11.255Z,100725.28
2024-05-09T21:00:43.235Z,100727.00
2024-05-09T21:03:16.248Z,100730.38
2024-05-09T21:05:45.862Z,100726.97
2024-05-09T21:08:14.617Z,100729.53
2024-05-09T21:10:42.910Z,100721.03
2024-05-09T21:13:12.502Z,100728.66
2024-05-09T21:15:40.760Z,100730.34
2024-05-09T21:18:09.341Z,100725.25
2024-05-09T21:20:38.235Z,100742.22
2024-05-09T21:23:06.523Z,100744.72
2024-05-09T21:25:34.917Z,100731.09
2024-05-09T21:28:04.436Z,100731.09
2024-05-09T21:33:05.622Z,100731.94
2024-05-09T21:35:33.965Z,100737.03
2024-05-09T21:38:02.056Z,100728.53
2024-05-09T21:40:34.463Z,100731.09
2024-05-09T21:43:05.350Z,100736.22
2024-05-09T21:45:34.873Z,100738.75
2024-05-09T21:48:07.300Z,100737.06
2024-05-09T21:50:40.043Z,100751.53
2024-05-09T21:53:14.023Z,100747.25
2024-05-09T21:55:45.715Z,100748.94
2024-05-09T21:58:15.234Z,100747.25
2024-05-09T22:00:46.579Z,100747.25
2024-05-09T22:03:15.613Z,100753.16
2024-05-09T22:05:45.493Z,100754.03
2024-05-09T22:08:13.944Z,100765.03
2024-05-09T22:10:42.227Z,100758.22
2024-05-09T22:13:10.423Z,100765.88
2024-05-09T22:15:40.712Z,100765.84
2024-05-09T22:18:11.039Z,100777.69
2024-05-09T22:20:45.847Z,100770.88
2024-05-09T22:23:16.204Z,100775.94
2024-05-09T22:25:44.638Z,100760.59
2024-05-09T22:28:15.879Z,100774.22
2024-05-09T22:30:49.405Z,100769.94
2024-05-09T22:33:17.535Z,100775.88
2024-05-09T22:35:45.902Z,100780.94
2024-05-09T22:38:14.272Z,100772.38
2024-05-09T22:40:47.803Z,100780.91
2024-05-09T22:43:21.335Z,100777.47
2024-05-09T22:45:52.002Z,100781.66
2024-05-09T22:48:20.666Z,100770.56
2024-05-09T22:50:49.185Z,100778.25
2024-05-09T22:53:17.722Z,100791.84
2024-05-09T22:55:45.943Z,100793.50
2024-05-09T22:58:13.951Z,100802.00
2024-05-09T23:00:42.145Z,100799.44
2024-05-09T23:03:10.561Z,100801.16
2024-05-09T23:05:39.138Z,100813.03
2024-05-09T23:08:07.825Z,100800.28
2024-05-09T23:10:38.020Z,100803.69
2024-05-09T23:13:09.925Z,100801.97
2024-05-09T23:15:41.233Z,100799.41
2024-05-09T23:18:09.631Z,100805.38
2024-05-09T23:20:39.794Z,100802.78
2024-05-09T23:23:11.009Z,100802.78
2024-05-09T23:25:42.030Z,100806.16
2024-05-09T23:28:11.645Z,100810.38
2024-05-09T23:30:41.461Z,100810.38
2024-05-09T23:33:13.303Z,100825.66
2024-05-09T23:35:44.614Z,100824.75
2024-05-09T23:38:13.594Z,100834.09
2024-05-09T23:40:42.969Z,100840.88
2024-05-09T23:43:13.200Z,100841.69
2024-05-09T23:45:42.573Z,100850.16
2024-05-09T23:48:12.306Z,100852.69
2024-05-09T23:50:41.349Z,100856.09
2024-05-09T23:53:10.827Z,100858.63
2024-05-09T23:55:39.801Z,100858.63
2024-05-09T23:58:08.552Z,100860.28
